sensor_id;sensor_type;location;lat;lon;timestamp;P1;durP1;ratioP1;P2;durP2;ratioP2
54408;SDS011;40315;48.620;9.828;2023-07-16T00:00:03;4.95;;;3.40;;
54408;SDS011;40315;48.620;9.828;2023-07-16T00:02:34;3.80;;;3.40;;
54408;SDS011;40315;48.620;9.828;2023-07-16T00:05:02;5.03;;;3.40;;
54408;SDS011;40315;48.620;9.828;2023-07-16T00:07:29;4.90;;;4.25;;
54408;SDS011;40315;48.620;9.828;2023-07-16T00:09:56;6.18;;;4.03;;
54408;SDS011;40315;48.620;9.828;2023-07-16T00:12:23;4.85;;;3.97;;
54408;SDS011;40315;48.620;9.828;2023-07-16T00:14:50;5.78;;;4.03;;
54408;SDS011;40315;48.620;9.828;2023-07-16T00:17:17;4.47;;;3.97;;
54408;SDS011;40315;48.620;9.828;2023-07-16T00:19:48;4.97;;;4.47;;
54408;SDS011;40315;48.620;9.828;2023-07-16T00:22:14;6.45;;;4.70;;
54408;SDS011;40315;48.620;9.828;2023-07-16T00:24:41;6.85;;;4.95;;
54408;SDS011;40315;48.620;9.828;2023-07-16T00:27:08;5.65;;;5.07;;
54408;SDS011;40315;48.620;9.828;2023-07-16T00:29:38;4.90;;;3.35;;
54408;SDS011;40315;48.620;9.828;2023-07-16T00:32:07;4.80;;;3.72;;
54408;SDS011;40315;48.620;9.828;2023-07-16T00:34:34;5.75;;;4.00;;
54408;SDS011;40315;48.620;9.828;2023-07-16T00:37:05;5.40;;;4.28;;
54408;SDS011;40315;48.620;9.828;2023-07-16T00:39:32;4.55;;;3.65;;
54408;SDS011;40315;48.620;9.828;2023-07-16T00:41:59;2.97;;;2.78;;
54408;SDS011;40315;48.620;9.828;2023-07-16T00:44:26;2.50;;;2.30;;
54408;SDS011;40315;48.620;9.828;2023-07-16T00:46:53;2.95;;;2.20;;
54408;SDS011;40315;48.620;9.828;2023-07-16T00:49:20;4.00;;;2.45;;
54408;SDS011;40315;48.620;9.828;2023-07-16T00:51:47;1.83;;;1.67;;
54408;SDS011;40315;48.620;9.828;2023-07-16T00:54:18;2.15;;;1.77;;
54408;SDS011;40315;48.620;9.828;2023-07-16T00:56:45;2.20;;;2.00;;
54408;SDS011;40315;48.620;9.828;2023-07-16T00:59:12;3.20;;;1.98;;
54408;SDS011;40315;48.620;9.828;2023-07-16T01:04:32;1.85;;;1.63;;
54408;SDS011;40315;48.620;9.828;2023-07-16T01:07:00;2.08;;;1.85;;
54408;SDS011;40315;48.620;9.828;2023-07-16T01:09:30;2.42;;;2.13;;
54408;SDS011;40315;48.620;9.828;2023-07-16T01:11:58;2.20;;;2.00;;
54408;SDS011;40315;48.620;9.828;2023-07-16T01:14:27;2.85;;;2.10;;
54408;SDS011;40315;48.620;9.828;2023-07-16T01:16:56;1.90;;;1.60;;
54408;SDS011;40315;48.620;9.828;2023-07-16T01:19:26;2.42;;;1.80;;
54408;SDS011;40315;48.620;9.828;2023-07-16T01:21:56;2.53;;;1.98;;
54408;SDS011;40315;48.620;9.828;2023-07-16T01:24:44;2.17;;;1.90;;
54408;SDS011;40315;48.620;9.828;2023-07-16T01:30:33;2.05;;;1.85;;
54408;SDS011;40315;48.620;9.828;2023-07-16T01:33:03;2.33;;;1.40;;
54408;SDS011;40315;48.620;9.828;2023-07-16T01:35:34;2.20;;;1.50;;
54408;SDS011;40315;48.620;9.828;2023-07-16T01:38:01;1.80;;;1.60;;
54408;SDS011;40315;48.620;9.828;2023-07-16T01:40:29;2.22;;;1.60;;
54408;SDS011;40315;48.620;9.828;2023-07-16T01:42:56;2.42;;;1.33;;
54408;SDS011;40315;48.620;9.828;2023-07-16T01:45:23;1.55;;;1.25;;
54408;SDS011;40315;48.620;9.828;2023-07-16T01:54:36;1.98;;;1.60;;
54408;SDS011;40315;48.620;9.828;2023-07-16T01:57:03;2.83;;;1.40;;
54408;SDS011;40315;48.620;9.828;2023-07-16T01:59:31;1.67;;;1.35;;
54408;SDS011;40315;48.620;9.828;2023-07-16T02:01:58;2.13;;;1.40;;
54408;SDS011;40315;48.620;9.828;2023-07-16T02:04:25;2.83;;;1.70;;
54408;SDS011;40315;48.620;9.828;2023-07-16T02:06:51;2.40;;;1.40;;
54408;SDS011;40315;48.620;9.828;2023-07-16T02:09:21;2.08;;;1.33;;
54408;SDS011;40315;48.620;9.828;2023-07-16T02:11:51;2.10;;;1.80;;
54408;SDS011;40315;48.620;9.828;2023-07-16T02:14:18;1.42;;;1.33;;
54408;SDS011;40315;48.620;9.828;2023-07-16T02:16:46;2.25;;;1.33;;
54408;SDS011;40315;48.620;9.828;2023-07-16T02:19:12;1.63;;;1.20;;
54408;SDS011;40315;48.620;9.828;2023-07-16T02:21:40;1.75;;;1.40;;
54408;SDS011;40315;48.620;9.828;2023-07-16T02:24:07;1.42;;;1.02;;
54408;SDS011;40315;48.620;9.828;2023-07-16T02:26:34;1.75;;;1.30;;
54408;SDS011;40315;48.620;9.828;2023-07-16T02:29:04;1.90;;;1.35;;
54408;SDS011;40315;48.620;9.828;2023-07-16T02:31:34;1.98;;;1.58;;
54408;SDS011;40315;48.620;9.828;2023-07-16T02:34:01;2.03;;;1.30;;
54408;SDS011;40315;48.620;9.828;2023-07-16T02:36:32;2.17;;;1.33;;
54408;SDS011;40315;48.620;9.828;2023-07-16T02:38:58;2.05;;;1.42;;
54408;SDS011;40315;48.620;9.828;2023-07-16T02:41:25;2.40;;;1.27;;
54408;SDS011;40315;48.620;9.828;2023-07-16T02:43:58;2.25;;;1.08;;
54408;SDS011;40315;48.620;9.828;2023-07-16T02:46:28;1.80;;;1.60;;
54408;SDS011;40315;48.620;9.828;2023-07-16T02:48:54;1.33;;;1.10;;
54408;SDS011;40315;48.620;9.828;2023-07-16T02:51:21;2.60;;;1.30;;
54408;SDS011;40315;48.620;9.828;2023-07-16T02:53:48;1.65;;;1.55;;
54408;SDS011;40315;48.620;9.828;2023-07-16T02:56:15;2.15;;;1.42;;
54408;SDS011;40315;48.620;9.828;2023-07-16T02:58:42;1.90;;;1.30;;
54408;SDS011;40315;48.620;9.828;2023-07-16T03:01:14;1.33;;;1.23;;
54408;SDS011;40315;48.620;9.828;2023-07-16T03:03:42;1.38;;;1.20;;
54408;SDS011;40315;48.620;9.828;2023-07-16T03:06:11;1.20;;;1.10;;
54408;SDS011;40315;48.620;9.828;2023-07-16T03:08:38;2.17;;;1.33;;
54408;SDS011;40315;48.620;9.828;2023-07-16T03:11:05;1.30;;;1.10;;
54408;SDS011;40315;48.620;9.828;2023-07-16T03:13:35;2.88;;;1.40;;
54408;SDS011;40315;48.620;9.828;2023-07-16T03:16:03;1.23;;;1.13;;
54408;SDS011;40315;48.620;9.828;2023-07-16T03:18:30;1.20;;;1.10;;
54408;SDS011;40315;48.620;9.828;2023-07-16T03:21:00;1.17;;;1.08;;
54408;SDS011;40315;48.620;9.828;2023-07-16T03:23:26;1.80;;;1.20;;
54408;SDS011;40315;48.620;9.828;2023-07-16T03:25:53;1.17;;;1.08;;
54408;SDS011;40315;48.620;9.828;2023-07-16T03:28:21;1.02;;;1.00;;
54408;SDS011;40315;48.620;9.828;2023-07-16T03:30:48;1.02;;;0.90;;
54408;SDS011;40315;48.620;9.828;2023-07-16T03:33:15;1.48;;;1.05;;
54408;SDS011;40315;48.620;9.828;2023-07-16T03:35:43;2.88;;;1.15;;
54408;SDS011;40315;48.620;9.828;2023-07-16T03:38:11;1.42;;;1.33;;
54408;SDS011;40315;48.620;9.828;2023-07-16T03:40:39;1.25;;;1.15;;
54408;SDS011;40315;48.620;9.828;2023-07-16T03:43:06;1.48;;;1.13;;
54408;SDS011;40315;48.620;9.828;2023-07-16T03:45:34;1.75;;;1.00;;
54408;SDS011;40315;48.620;9.828;2023-07-16T03:48:02;0.82;;;0.75;;
54408;SDS011;40315;48.620;9.828;2023-07-16T03:50:29;2.90;;;1.17;;
54408;SDS011;40315;48.620;9.828;2023-07-16T03:52:56;2.63;;;1.20;;
54408;SDS011;40315;48.620;9.828;2023-07-16T03:55:24;1.38;;;1.27;;
54408;SDS011;40315;48.620;9.828;2023-07-16T03:57:51;1.10;;;1.00;;
54408;SDS011;40315;48.620;9.828;2023-07-16T04:00:19;2.25;;;1.10;;
54408;SDS011;40315;48.620;9.828;2023-07-16T04:02:49;3.88;;;1.30;;
54408;SDS011;40315;48.620;9.828;2023-07-16T04:05:17;1.52;;;1.13;;
54408;SDS011;40315;48.620;9.828;2023-07-16T04:07:44;2.78;;;1.17;;
54408;SDS011;40315;48.620;9.828;2023-07-16T04:10:11;1.73;;;1.00;;
54408;SDS011;40315;48.620;9.828;2023-07-16T04:12:39;2.03;;;1.10;;
54408;SDS011;40315;48.620;9.828;2023-07-16T04:15:07;1.13;;;1.02;;
54408;SDS011;40315;48.620;9.828;2023-07-16T04:17:35;2.67;;;1.10;;
54408;SDS011;40315;48.620;9.828;2023-07-16T04:20:02;2.78;;;1.38;;
54408;SDS011;40315;48.620;9.828;2023-07-16T04:22:31;1.42;;;1.33;;
54408;SDS011;40315;48.620;9.828;2023-07-16T04:24:59;2.22;;;1.35;;
54408;SDS011;40315;48.620;9.828;2023-07-16T04:27:25;2.40;;;1.10;;
54408;SDS011;40315;48.620;9.828;2023-07-16T04:29:54;1.25;;;1.15;;
54408;SDS011;40315;48.620;9.828;2023-07-16T04:32:21;2.20;;;0.90;;
54408;SDS011;40315;48.620;9.828;2023-07-16T04:34:48;1.45;;;1.20;;
54408;SDS011;40315;48.620;9.828;2023-07-16T04:37:15;1.65;;;1.40;;
54408;SDS011;40315;48.620;9.828;2023-07-16T04:39:45;1.45;;;1.10;;
54408;SDS011;40315;48.620;9.828;2023-07-16T04:42:12;2.05;;;1.08;;
54408;SDS011;40315;48.620;9.828;2023-07-16T04:44:39;1.30;;;1.20;;
54408;SDS011;40315;48.620;9.828;2023-07-16T04:47:07;2.28;;;1.30;;
54408;SDS011;40315;48.620;9.828;2023-07-16T04:49:34;2.03;;;1.20;;
54408;SDS011;40315;48.620;9.828;2023-07-16T04:52:01;1.40;;;1.30;;
54408;SDS011;40315;48.620;9.828;2023-07-16T04:54:34;2.53;;;1.35;;
54408;SDS011;40315;48.620;9.828;2023-07-16T04:57:02;3.35;;;1.30;;
54408;SDS011;40315;48.620;9.828;2023-07-16T04:59:32;2.40;;;1.40;;
54408;SDS011;40315;48.620;9.828;2023-07-16T05:01:59;2.88;;;1.05;;
54408;SDS011;40315;48.620;9.828;2023-07-16T05:04:30;1.52;;;1.23;;
54408;SDS011;40315;48.620;9.828;2023-07-16T05:06:57;1.20;;;1.10;;
54408;SDS011;40315;48.620;9.828;2023-07-16T05:09:26;1.80;;;1.02;;
54408;SDS011;40315;48.620;9.828;2023-07-16T05:11:53;2.88;;;1.60;;
54408;SDS011;40315;48.620;9.828;2023-07-16T05:14:19;1.27;;;1.10;;
54408;SDS011;40315;48.620;9.828;2023-07-16T05:16:46;1.40;;;1.10;;
54408;SDS011;40315;48.620;9.828;2023-07-16T05:19:13;1.92;;;1.00;;
54408;SDS011;40315;48.620;9.828;2023-07-16T05:21:44;1.20;;;1.10;;
54408;SDS011;40315;48.620;9.828;2023-07-16T05:24:13;1.60;;;1.50;;
54408;SDS011;40315;48.620;9.828;2023-07-16T05:26:42;1.77;;;1.30;;
54408;SDS011;40315;48.620;9.828;2023-07-16T05:29:09;1.77;;;1.00;;
54408;SDS011;40315;48.620;9.828;2023-07-16T05:31:36;2.13;;;1.40;;
54408;SDS011;40315;48.620;9.828;2023-07-16T05:34:03;1.25;;;1.15;;
54408;SDS011;40315;48.620;9.828;2023-07-16T05:36:32;1.20;;;1.10;;
54408;SDS011;40315;48.620;9.828;2023-07-16T05:39:00;1.83;;;1.17;;
54408;SDS011;40315;48.620;9.828;2023-07-16T05:41:27;1.23;;;1.13;;
54408;SDS011;40315;48.620;9.828;2023-07-16T05:43:54;1.52;;;1.40;;
54408;SDS011;40315;48.620;9.828;2023-07-16T05:46:21;3.33;;;1.10;;
54408;SDS011;40315;48.620;9.828;2023-07-16T05:48:48;1.75;;;1.65;;
54408;SDS011;40315;48.620;9.828;2023-07-16T05:51:15;2.17;;;1.38;;
54408;SDS011;40315;48.620;9.828;2023-07-16T05:53:42;2.50;;;1.40;;
54408;SDS011;40315;48.620;9.828;2023-07-16T05:56:12;1.52;;;1.30;;
54408;SDS011;40315;48.620;9.828;2023-07-16T05:58:39;3.30;;;1.20;;
54408;SDS011;40315;48.620;9.828;2023-07-16T06:01:09;2.10;;;1.42;;
54408;SDS011;40315;48.620;9.828;2023-07-16T06:03:36;1.70;;;1.30;;
54408;SDS011;40315;48.620;9.828;2023-07-16T06:06:03;1.60;;;1.50;;
54408;SDS011;40315;48.620;9.828;2023-07-16T06:08:30;1.88;;;1.40;;
54408;SDS011;40315;48.620;9.828;2023-07-16T06:10:59;1.63;;;1.35;;
54408;SDS011;40315;48.620;9.828;2023-07-16T06:13:27;2.65;;;1.30;;
54408;SDS011;40315;48.620;9.828;2023-07-16T06:15:54;2.67;;;1.50;;
54408;SDS011;40315;48.620;9.828;2023-07-16T06:18:21;1.63;;;1.50;;
54408;SDS011;40315;48.620;9.828;2023-07-16T06:20:48;1.67;;;1.50;;
54408;SDS011;40315;48.620;9.828;2023-07-16T06:23:19;1.73;;;1.63;;
54408;SDS011;40315;48.620;9.828;2023-07-16T06:25:46;2.00;;;1.42;;
54408;SDS011;40315;48.620;9.828;2023-07-16T06:28:13;1.33;;;1.23;;
54408;SDS011;40315;48.620;9.828;2023-07-16T06:30:42;2.42;;;1.23;;
54408;SDS011;40315;48.620;9.828;2023-07-16T06:33:09;1.73;;;1.40;;
54408;SDS011;40315;48.620;9.828;2023-07-16T06:35:36;2.45;;;1.38;;
54408;SDS011;40315;48.620;9.828;2023-07-16T06:38:03;1.15;;;1.05;;
54408;SDS011;40315;48.620;9.828;2023-07-16T06:40:33;3.25;;;1.55;;
54408;SDS011;40315;48.620;9.828;2023-07-16T06:43:00;2.05;;;1.23;;
54408;SDS011;40315;48.620;9.828;2023-07-16T06:45:29;2.65;;;1.30;;
54408;SDS011;40315;48.620;9.828;2023-07-16T06:48:00;2.78;;;1.10;;
54408;SDS011;40315;48.620;9.828;2023-07-16T06:50:27;2.60;;;1.30;;
54408;SDS011;40315;48.620;9.828;2023-07-16T06:52:56;2.38;;;1.30;;
54408;SDS011;40315;48.620;9.828;2023-07-16T06:55:23;1.23;;;1.13;;
54408;SDS011;40315;48.620;9.828;2023-07-16T06:57:50;1.35;;;1.23;;
54408;SDS011;40315;48.620;9.828;2023-07-16T07:00:17;2.03;;;1.30;;
54408;SDS011;40315;48.620;9.828;2023-07-16T07:02:44;1.98;;;1.38;;
54408;SDS011;40315;48.620;9.828;2023-07-16T07:05:12;1.58;;;1.48;;
54408;SDS011;40315;48.620;9.828;2023-07-16T07:07:39;1.75;;;1.20;;
54408;SDS011;40315;48.620;9.828;2023-07-16T07:10:07;1.70;;;1.25;;
54408;SDS011;40315;48.620;9.828;2023-07-16T07:12:34;1.45;;;1.20;;
54408;SDS011;40315;48.620;9.828;2023-07-16T07:15:03;1.80;;;1.38;;
54408;SDS011;40315;48.620;9.828;2023-07-16T07:17:30;2.85;;;1.30;;
54408;SDS011;40315;48.620;9.828;2023-07-16T07:19:57;1.50;;;1.23;;
54408;SDS011;40315;48.620;9.828;2023-07-16T07:22:26;2.35;;;1.33;;
54408;SDS011;40315;48.620;9.828;2023-07-16T07:24:52;1.40;;;1.30;;
54408;SDS011;40315;48.620;9.828;2023-07-16T07:27:19;1.65;;;1.30;;
54408;SDS011;40315;48.620;9.828;2023-07-16T07:29:46;2.50;;;1.27;;
54408;SDS011;40315;48.620;9.828;2023-07-16T07:32:17;2.22;;;1.35;;
54408;SDS011;40315;48.620;9.828;2023-07-16T07:34:44;1.42;;;1.23;;
54408;SDS011;40315;48.620;9.828;2023-07-16T07:37:11;3.30;;;1.63;;
54408;SDS011;40315;48.620;9.828;2023-07-16T07:39:39;2.28;;;1.40;;
54408;SDS011;40315;48.620;9.828;2023-07-16T07:42:06;1.85;;;1.33;;
54408;SDS011;40315;48.620;9.828;2023-07-16T07:44:35;2.42;;;1.40;;
54408;SDS011;40315;48.620;9.828;2023-07-16T07:47:02;2.97;;;1.70;;
54408;SDS011;40315;48.620;9.828;2023-07-16T07:49:33;2.50;;;1.27;;
54408;SDS011;40315;48.620;9.828;2023-07-16T07:52:03;2.70;;;1.60;;
54408;SDS011;40315;48.620;9.828;2023-07-16T07:54:31;3.78;;;1.50;;
54408;SDS011;40315;48.620;9.828;2023-07-16T07:57:03;3.28;;;1.60;;
54408;SDS011;40315;48.620;9.828;2023-07-16T07:59:33;3.58;;;1.52;;
54408;SDS011;40315;48.620;9.828;2023-07-16T08:02:00;2.47;;;1.50;;
54408;SDS011;40315;48.620;9.828;2023-07-16T08:04:27;4.35;;;1.73;;
54408;SDS011;40315;48.620;9.828;2023-07-16T08:06:54;1.85;;;1.40;;
54408;SDS011;40315;48.620;9.828;2023-07-16T08:09:20;4.85;;;1.70;;
54408;SDS011;40315;48.620;9.828;2023-07-16T08:11:47;5.53;;;1.50;;
54408;SDS011;40315;48.620;9.828;2023-07-16T08:14:22;5.30;;;1.60;;
54408;SDS011;40315;48.620;9.828;2023-07-16T08:16:49;2.75;;;1.60;;
54408;SDS011;40315;48.620;9.828;2023-07-16T08:19:18;4.07;;;1.52;;
54408;SDS011;40315;48.620;9.828;2023-07-16T08:21:45;6.80;;;1.50;;
54408;SDS011;40315;48.620;9.828;2023-07-16T08:24:12;5.03;;;1.75;;
54408;SDS011;40315;48.620;9.828;2023-07-16T08:26:39;6.32;;;1.60;;
54408;SDS011;40315;48.620;9.828;2023-07-16T08:29:06;7.18;;;2.22;;
54408;SDS011;40315;48.620;9.828;2023-07-16T08:31:34;5.40;;;2.20;;
54408;SDS011;40315;48.620;9.828;2023-07-16T08:34:01;3.83;;;1.40;;
54408;SDS011;40315;48.620;9.828;2023-07-16T08:36:28;3.35;;;1.73;;
54408;SDS011;40315;48.620;9.828;2023-07-16T08:38:55;4.38;;;1.73;;
54408;SDS011;40315;48.620;9.828;2023-07-16T08:41:22;2.35;;;1.40;;
54408;SDS011;40315;48.620;9.828;2023-07-16T08:43:50;2.85;;;1.30;;
54408;SDS011;40315;48.620;9.828;2023-07-16T08:46:19;5.60;;;2.15;;
54408;SDS011;40315;48.620;9.828;2023-07-16T08:48:47;3.88;;;1.67;;
54408;SDS011;40315;48.620;9.828;2023-07-16T08:51:15;4.00;;;1.65;;
54408;SDS011;40315;48.620;9.828;2023-07-16T08:53:42;3.90;;;1.65;;
54408;SDS011;40315;48.620;9.828;2023-07-16T08:56:09;2.80;;;1.40;;
54408;SDS011;40315;48.620;9.828;2023-07-16T08:58:36;3.38;;;1.60;;
54408;SDS011;40315;48.620;9.828;2023-07-16T09:01:04;3.30;;;1.60;;
54408;SDS011;40315;48.620;9.828;2023-07-16T09:03:32;3.95;;;1.60;;
54408;SDS011;40315;48.620;9.828;2023-07-16T09:06:01;3.20;;;1.50;;
54408;SDS011;40315;48.620;9.828;2023-07-16T09:08:30;2.28;;;1.33;;
54408;SDS011;40315;48.620;9.828;2023-07-16T09:10:57;1.92;;;1.35;;
54408;SDS011;40315;48.620;9.828;2023-07-16T09:13:24;3.38;;;1.77;;
54408;SDS011;40315;48.620;9.828;2023-07-16T09:15:53;3.55;;;1.40;;
54408;SDS011;40315;48.620;9.828;2023-07-16T09:18:21;3.22;;;1.50;;
54408;SDS011;40315;48.620;9.828;2023-07-16T09:20:48;2.72;;;1.42;;
54408;SDS011;40315;48.620;9.828;2023-07-16T09:23:21;3.40;;;1.40;;
54408;SDS011;40315;48.620;9.828;2023-07-16T09:25:50;2.17;;;1.30;;
54408;SDS011;40315;48.620;9.828;2023-07-16T09:28:18;3.35;;;1.63;;
54408;SDS011;40315;48.620;9.828;2023-07-16T09:30:46;3.85;;;1.60;;
54408;SDS011;40315;48.620;9.828;2023-07-16T09:33:13;3.90;;;1.55;;
54408;SDS011;40315;48.620;9.828;2023-07-16T09:35:42;4.05;;;1.48;;
54408;SDS011;40315;48.620;9.828;2023-07-16T09:38:10;3.00;;;1.95;;
54408;SDS011;40315;48.620;9.828;2023-07-16T09:40:41;2.25;;;1.30;;
54408;SDS011;40315;48.620;9.828;2023-07-16T09:43:09;2.40;;;1.50;;
54408;SDS011;40315;48.620;9.828;2023-07-16T09:45:39;3.40;;;1.30;;
54408;SDS011;40315;48.620;9.828;2023-07-16T09:48:07;2.47;;;1.48;;
54408;SDS011;40315;48.620;9.828;2023-07-16T09:50:34;3.65;;;1.70;;
54408;SDS011;40315;48.620;9.828;2023-07-16T09:53:03;3.03;;;1.60;;
54408;SDS011;40315;48.620;9.828;2023-07-16T09:55:32;1.70;;;1.38;;
54408;SDS011;40315;48.620;9.828;2023-07-16T09:58:05;3.13;;;1.60;;
54408;SDS011;40315;48.620;9.828;2023-07-16T10:00:34;1.88;;;1.45;;
54408;SDS011;40315;48.620;9.828;2023-07-16T10:03:05;3.63;;;1.70;;
54408;SDS011;40315;48.620;9.828;2023-07-16T10:05:35;2.40;;;2.08;;
54408;SDS011;40315;48.620;9.828;2023-07-16T10:08:03;3.03;;;1.95;;
54408;SDS011;40315;48.620;9.828;2023-07-16T10:10:38;3.00;;;1.90;;
54408;SDS011;40315;48.620;9.828;2023-07-16T10:13:11;2.40;;;1.85;;
54408;SDS011;40315;48.620;9.828;2023-07-16T10:15:39;3.53;;;2.13;;
54408;SDS011;40315;48.620;9.828;2023-07-16T10:18:22;1.98;;;1.70;;
54408;SDS011;40315;48.620;9.828;2023-07-16T10:20:50;2.47;;;1.60;;
54408;SDS011;40315;48.620;9.828;2023-07-16T10:23:18;2.17;;;1.60;;
54408;SDS011;40315;48.620;9.828;2023-07-16T10:25:57;2.47;;;1.55;;
54408;SDS011;40315;48.620;9.828;2023-07-16T10:28:26;2.53;;;1.40;;
54408;SDS011;40315;48.620;9.828;2023-07-16T10:30:56;1.52;;;1.40;;
54408;SDS011;40315;48.620;9.828;2023-07-16T10:33:23;2.85;;;1.67;;
54408;SDS011;40315;48.620;9.828;2023-07-16T10:35:50;1.67;;;1.35;;
54408;SDS011;40315;48.620;9.828;2023-07-16T10:38:17;3.13;;;1.60;;
54408;SDS011;40315;48.620;9.828;2023-07-16T10:40:45;4.63;;;1.85;;
54408;SDS011;40315;48.620;9.828;2023-07-16T10:43:12;1.98;;;1.48;;
54408;SDS011;40315;48.620;9.828;2023-07-16T10:45:41;2.15;;;1.50;;
54408;SDS011;40315;48.620;9.828;2023-07-16T10:48:10;2.22;;;1.60;;
54408;SDS011;40315;48.620;9.828;2023-07-16T10:50:37;2.42;;;1.55;;
54408;SDS011;40315;48.620;9.828;2023-07-16T10:53:04;2.75;;;1.70;;
54408;SDS011;40315;48.620;9.828;2023-07-16T10:55:31;1.85;;;1.63;;
54408;SDS011;40315;48.620;9.828;2023-07-16T10:58:03;2.88;;;1.65;;
54408;SDS011;40315;48.620;9.828;2023-07-16T11:00:31;5.28;;;1.70;;
54408;SDS011;40315;48.620;9.828;2023-07-16T11:03:02;3.53;;;2.08;;
54408;SDS011;40315;48.620;9.828;2023-07-16T11:05:30;2.72;;;1.60;;
54408;SDS011;40315;48.620;9.828;2023-07-16T11:07:57;3.70;;;1.70;;
54408;SDS011;40315;48.620;9.828;2023-07-16T11:10:24;2.08;;;1.40;;
54408;SDS011;40315;48.620;9.828;2023-07-16T11:12:55;2.10;;;1.88;;
54408;SDS011;40315;48.620;9.828;2023-07-16T11:15:30;2.67;;;1.65;;
54408;SDS011;40315;48.620;9.828;2023-07-16T11:18:00;2.88;;;1.70;;
54408;SDS011;40315;48.620;9.828;2023-07-16T11:20:29;3.03;;;1.77;;
54408;SDS011;40315;48.620;9.828;2023-07-16T11:22:57;2.08;;;1.60;;
54408;SDS011;40315;48.620;9.828;2023-07-16T11:25:25;2.95;;;1.70;;
54408;SDS011;40315;48.620;9.828;2023-07-16T11:27:53;2.38;;;1.60;;
54408;SDS011;40315;48.620;9.828;2023-07-16T11:30:22;2.90;;;1.60;;
54408;SDS011;40315;48.620;9.828;2023-07-16T11:32:49;1.92;;;1.73;;
54408;SDS011;40315;48.620;9.828;2023-07-16T11:35:18;3.25;;;1.60;;
54408;SDS011;40315;48.620;9.828;2023-07-16T11:37:46;2.05;;;1.80;;
54408;SDS011;40315;48.620;9.828;2023-07-16T11:40:14;3.42;;;1.75;;
54408;SDS011;40315;48.620;9.828;2023-07-16T11:42:43;2.17;;;1.70;;
54408;SDS011;40315;48.620;9.828;2023-07-16T11:45:16;4.72;;;1.65;;
54408;SDS011;40315;48.620;9.828;2023-07-16T11:47:44;3.40;;;1.90;;
54408;SDS011;40315;48.620;9.828;2023-07-16T11:50:13;2.10;;;1.80;;
54408;SDS011;40315;48.620;9.828;2023-07-16T11:52:42;1.90;;;1.65;;
54408;SDS011;40315;48.620;9.828;2023-07-16T11:55:09;2.00;;;1.70;;
54408;SDS011;40315;48.620;9.828;2023-07-16T11:57:36;3.22;;;1.65;;
54408;SDS011;40315;48.620;9.828;2023-07-16T12:00:03;2.47;;;1.77;;
54408;SDS011;40315;48.620;9.828;2023-07-16T12:02:34;2.30;;;1.53;;
54408;SDS011;40315;48.620;9.828;2023-07-16T12:05:01;2.08;;;1.60;;
54408;SDS011;40315;48.620;9.828;2023-07-16T12:07:31;2.28;;;1.60;;
54408;SDS011;40315;48.620;9.828;2023-07-16T12:10:01;2.47;;;1.75;;
54408;SDS011;40315;48.620;9.828;2023-07-16T12:12:29;2.47;;;1.77;;
54408;SDS011;40315;48.620;9.828;2023-07-16T12:14:55;1.75;;;1.45;;
54408;SDS011;40315;48.620;9.828;2023-07-16T12:17:25;2.50;;;1.73;;
54408;SDS011;40315;48.620;9.828;2023-07-16T12:19:54;1.40;;;1.30;;
54408;SDS011;40315;48.620;9.828;2023-07-16T12:22:23;4.10;;;2.00;;
54408;SDS011;40315;48.620;9.828;2023-07-16T12:24:50;1.70;;;1.50;;
54408;SDS011;40315;48.620;9.828;2023-07-16T12:27:19;3.65;;;1.90;;
54408;SDS011;40315;48.620;9.828;2023-07-16T12:29:46;3.22;;;1.90;;
54408;SDS011;40315;48.620;9.828;2023-07-16T12:32:13;2.63;;;1.80;;
54408;SDS011;40315;48.620;9.828;2023-07-16T12:34:42;1.75;;;1.35;;
54408;SDS011;40315;48.620;9.828;2023-07-16T12:37:09;2.70;;;1.90;;
54408;SDS011;40315;48.620;9.828;2023-07-16T12:39:36;2.60;;;1.88;;
54408;SDS011;40315;48.620;9.828;2023-07-16T12:42:03;3.65;;;1.50;;
54408;SDS011;40315;48.620;9.828;2023-07-16T12:44:32;2.03;;;1.80;;
54408;SDS011;40315;48.620;9.828;2023-07-16T12:46:59;3.88;;;1.70;;
54408;SDS011;40315;48.620;9.828;2023-07-16T12:49:29;1.75;;;1.65;;
54408;SDS011;40315;48.620;9.828;2023-07-16T12:51:56;2.33;;;1.67;;
54408;SDS011;40315;48.620;9.828;2023-07-16T12:54:25;2.30;;;1.63;;
54408;SDS011;40315;48.620;9.828;2023-07-16T12:56:52;2.15;;;1.77;;
54408;SDS011;40315;48.620;9.828;2023-07-16T12:59:20;2.55;;;1.77;;
54408;SDS011;40315;48.620;9.828;2023-07-16T13:01:53;3.35;;;1.70;;
54408;SDS011;40315;48.620;9.828;2023-07-16T13:04:22;1.75;;;1.63;;
54408;SDS011;40315;48.620;9.828;2023-07-16T13:06:49;2.55;;;1.65;;
54408;SDS011;40315;48.620;9.828;2023-07-16T13:09:19;1.67;;;1.33;;
54408;SDS011;40315;48.620;9.828;2023-07-16T13:11:48;2.08;;;1.70;;
54408;SDS011;40315;48.620;9.828;2023-07-16T13:14:18;1.88;;;1.67;;
54408;SDS011;40315;48.620;9.828;2023-07-16T13:16:45;1.83;;;1.50;;
54408;SDS011;40315;48.620;9.828;2023-07-16T13:19:13;3.08;;;1.95;;
54408;SDS011;40315;48.620;9.828;2023-07-16T13:21:40;2.15;;;1.65;;
54408;SDS011;40315;48.620;9.828;2023-07-16T13:24:07;2.35;;;1.80;;
54408;SDS011;40315;48.620;9.828;2023-07-16T13:26:34;2.00;;;1.80;;
54408;SDS011;40315;48.620;9.828;2023-07-16T13:29:01;2.55;;;1.60;;
54408;SDS011;40315;48.620;9.828;2023-07-16T13:31:28;3.08;;;1.42;;
54408;SDS011;40315;48.620;9.828;2023-07-16T13:33:55;2.45;;;1.45;;
54408;SDS011;40315;48.620;9.828;2023-07-16T13:36:23;2.33;;;1.63;;
54408;SDS011;40315;48.620;9.828;2023-07-16T13:38:52;1.90;;;1.55;;
54408;SDS011;40315;48.620;9.828;2023-07-16T13:41:24;2.63;;;1.70;;
54408;SDS011;40315;48.620;9.828;2023-07-16T13:43:51;3.35;;;1.60;;
54408;SDS011;40315;48.620;9.828;2023-07-16T13:46:18;2.20;;;1.45;;
54408;SDS011;40315;48.620;9.828;2023-07-16T13:48:48;3.35;;;1.70;;
54408;SDS011;40315;48.620;9.828;2023-07-16T13:51:15;2.65;;;1.80;;
54408;SDS011;40315;48.620;9.828;2023-07-16T13:53:43;2.45;;;1.55;;
54408;SDS011;40315;48.620;9.828;2023-07-16T13:56:10;2.08;;;1.60;;
54408;SDS011;40315;48.620;9.828;2023-07-16T13:58:37;3.13;;;1.67;;
54408;SDS011;40315;48.620;9.828;2023-07-16T14:01:04;4.75;;;1.63;;
54408;SDS011;40315;48.620;9.828;2023-07-16T14:03:31;3.13;;;1.65;;
54408;SDS011;40315;48.620;9.828;2023-07-16T14:06:01;3.63;;;1.77;;
54408;SDS011;40315;48.620;9.828;2023-07-16T14:08:28;3.08;;;1.88;;
54408;SDS011;40315;48.620;9.828;2023-07-16T14:11:00;2.72;;;1.58;;
54408;SDS011;40315;48.620;9.828;2023-07-16T14:13:27;2.80;;;1.75;;
54408;SDS011;40315;48.620;9.828;2023-07-16T14:15:54;2.08;;;1.45;;
54408;SDS011;40315;48.620;9.828;2023-07-16T14:18:21;2.55;;;2.25;;
54408;SDS011;40315;48.620;9.828;2023-07-16T14:20:49;2.38;;;1.95;;
54408;SDS011;40315;48.620;9.828;2023-07-16T14:23:18;2.47;;;1.75;;
54408;SDS011;40315;48.620;9.828;2023-07-16T14:25:45;3.58;;;1.75;;
54408;SDS011;40315;48.620;9.828;2023-07-16T14:28:13;3.10;;;1.80;;
54408;SDS011;40315;48.620;9.828;2023-07-16T14:30:40;2.80;;;1.63;;
54408;SDS011;40315;48.620;9.828;2023-07-16T14:33:07;3.80;;;1.65;;
54408;SDS011;40315;48.620;9.828;2023-07-16T14:35:34;4.28;;;1.70;;
54408;SDS011;40315;48.620;9.828;2023-07-16T14:38:03;2.72;;;1.58;;
54408;SDS011;40315;48.620;9.828;2023-07-16T14:40:30;1.77;;;1.40;;
54408;SDS011;40315;48.620;9.828;2023-07-16T14:42:57;3.40;;;1.65;;
54408;SDS011;40315;48.620;9.828;2023-07-16T14:45:25;3.33;;;1.75;;
54408;SDS011;40315;48.620;9.828;2023-07-16T14:47:52;1.88;;;1.67;;
54408;SDS011;40315;48.620;9.828;2023-07-16T14:50:19;2.05;;;1.40;;
54408;SDS011;40315;48.620;9.828;2023-07-16T14:52:46;3.55;;;1.90;;
54408;SDS011;40315;48.620;9.828;2023-07-16T14:55:13;2.70;;;1.75;;
54408;SDS011;40315;48.620;9.828;2023-07-16T14:57:40;2.92;;;2.03;;
54408;SDS011;40315;48.620;9.828;2023-07-16T15:00:07;2.72;;;1.90;;
54408;SDS011;40315;48.620;9.828;2023-07-16T15:02:37;2.92;;;1.73;;
54408;SDS011;40315;48.620;9.828;2023-07-16T15:05:04;3.25;;;1.70;;